Bartow, Florida
Current Conditions -  °F | °C
As of 2:47 PM on Wednesday 28 Jan 2015 (Local Time) from KBOW Reporting Station
Clear Clear  
Wind Chill: 61°   Ceiling: Unl
Heat Index: 61°   Visibility: 10mi
Dew Point: 30°   Wind: 9mph
Humidity: 31%   Direction: 20°NNE
Pressure: 30.19"   Gusts: NA
Location:  27.9°N, 81.84°W
Report Text: KBOW 281947Z 02008KT 10SM SKC 16/M01 A3019
Loading
Personal Weather Stations






























Interactive Weather Map New forecast layout! Learn more

10-Day Weather Forecast

Advertisements
Track Severe Weather on mobile